Time;durP1;ratioP1;P1;durP2;ratioP2;P2;SDS_P1;SDS_P2;PMS_P1;PMS_P2;Temp;Humidity;BMP_temperature;BMP_pressure;BME280_temperature;BME280_humidity;BME280_pressure;Samples;Min_cycle;Max_cycle;Signal;HPM_P1;HPM_P2
2022/08/10 00:00:21;;;;;;;1.60;1.02;;;;;;;17.65;80.37;101833.06;5162132;28;20512;-75
2022/08/10 00:02:54;;;;;;;2.80;1.27;;;;;;;17.89;80.11;101827.53;5162642;28;20963;-75
2022/08/10 00:05:26;;;;;;;3.25;1.17;;;;;;;17.84;79.17;101823.34;5161610;28;20079;-75
2022/08/10 00:07:56;;;;;;;4.10;1.17;;;;;;;17.92;79.61;101815.91;5161302;28;20169;-75
2022/08/10 00:10:27;;;;;;;4.45;1.00;;;;;;;17.90;79.31;101828.34;5161593;28;20547;-75
2022/08/10 00:12:57;;;;;;;3.40;1.10;;;;;;;17.87;79.70;101821.44;5161517;28;20042;-75
2022/08/10 00:15:28;;;;;;;4.47;1.05;;;;;;;17.74;80.23;101825.56;5162050;28;20026;-74
2022/08/10 00:17:58;;;;;;;3.28;0.90;;;;;;;17.59;80.15;101833.31;5161425;28;20540;-75
2022/08/10 00:20:29;;;;;;;5.07;1.23;;;;;;;17.36;81.55;101836.97;5161759;28;20511;-75
2022/08/10 00:22:59;;;;;;;3.90;1.30;;;;;;;17.27;81.78;101836.44;5161381;28;20145;-75
2022/08/10 00:25:29;;;;;;;4.70;1.50;;;;;;;17.24;82.33;101833.94;5161579;28;20053;-75
2022/08/10 00:27:59;;;;;;;3.40;1.17;;;;;;;17.14;82.38;101837.91;5161341;28;20511;-75
2022/08/10 00:30:30;;;;;;;2.15;1.15;;;;;;;17.17;83.33;101835.16;5160404;28;20041;-75
2022/08/10 00:33:00;;;;;;;3.67;1.20;;;;;;;17.31;82.16;101843.34;5161785;28;20101;-75
2022/08/10 00:35:33;;;;;;;2.58;1.30;;;;;;;16.93;84.76;101847.59;5161114;28;20695;-75
2022/08/10 00:38:04;;;;;;;2.72;1.20;;;;;;;17.33;81.51;101841.50;5152905;28;20027;-75
2022/08/10 00:40:34;;;;;;;2.35;1.33;;;;;;;17.31;81.72;101835.41;5160758;28;20400;-75
2022/08/10 00:43:05;;;;;;;2.90;1.20;;;;;;;17.19;82.41;101833.28;5161338;28;20026;-74
2022/08/10 00:45:36;;;;;;;4.00;1.27;;;;;;;16.87;84.47;101837.28;5158786;28;20061;-75
2022/08/10 00:48:06;;;;;;;2.00;1.33;;;;;;;17.29;82.56;101826.69;5160693;28;20031;-72
2022/08/10 00:50:37;;;;;;;1.92;1.10;;;;;;;17.23;81.61;101825.19;5160836;28;20614;-75
2022/08/10 00:53:07;;;;;;;2.85;1.40;;;;;;;17.29;80.64;101826.69;5161068;28;20026;-75
2022/08/10 00:55:38;;;;;;;2.92;1.10;;;;;;;17.48;79.43;101827.66;5159479;28;20081;-74
2022/08/10 00:58:08;;;;;;;3.63;1.30;;;;;;;17.35;79.89;101819.38;5160308;28;20124;-74
2022/08/10 01:00:41;;;;;;;3.13;1.20;;;;;;;17.49;79.35;101810.84;5160800;28;20026;-75
2022/08/10 01:03:12;;;;;;;3.75;1.40;;;;;;;17.41;80.38;101808.56;5160696;28;20124;-75
2022/08/10 01:06:04;;;;;;;4.35;1.42;;;;;;;17.11;83.08;101799.28;5160426;28;20065;-74
2022/08/10 01:08:53;;;;;;;2.75;1.20;;;;;;;17.25;81.63;101799.53;5159199;28;20034;-75
2022/08/10 01:11:34;;;;;;;3.13;1.20;;;;;;;17.26;81.08;101793.31;5158003;28;20033;-75
2022/08/10 01:14:15;;;;;;;5.65;1.40;;;;;;;17.22;81.38;101798.81;5160455;28;20041;-75
2022/08/10 01:16:52;;;;;;;5.03;1.50;;;;;;;17.29;80.88;101792.34;5156295;28;20026;-75
2022/08/10 01:19:41;;;;;;;2.90;1.40;;;;;;;17.22;80.75;101793.50;5161035;28;20404;-75
2022/08/10 01:22:31;;;;;;;4.00;1.35;;;;;;;17.14;81.31;101790.38;5160185;28;20038;-74
2022/08/10 01:25:13;;;;;;;3.78;1.60;;;;;;;17.11;82.18;101793.13;5160611;28;20057;-74
2022/08/10 01:28:00;;;;;;;3.28;1.50;;;;;;;17.01;83.22;101807.66;5159955;28;20061;-75
2022/08/10 01:30:32;;;;;;;3.25;1.40;;;;;;;17.10;80.81;101804.59;5158493;28;20797;-75
2022/08/10 01:33:08;;;;;;;2.03;1.13;;;;;;;16.59;84.56;101800.66;5159019;28;20037;-75
2022/08/10 01:36:02;;;;;;;;;;;;;;;16.36;86.62;101806.84;5159978;28;20048;-75
2022/08/10 01:38:39;;;;;;;2.95;1.48;;;;;;;16.27;87.27;101803.69;5156752;28;19920;-74
2022/08/10 01:41:25;;;;;;;4.07;1.35;;;;;;;16.35;86.26;101799.00;5160285;28;20030;-75
2022/08/10 01:44:10;;;;;;;2.75;1.60;;;;;;;16.22;87.70;101809.13;5157423;28;20716;-75
2022/08/10 01:46:47;;;;;;;4.53;1.35;;;;;;;16.34;86.71;101802.50;5159392;28;20045;-75
2022/08/10 01:49:21;;;;;;;2.95;1.40;;;;;;;16.18;88.30;101801.41;5156167;28;20037;-74
2022/08/10 01:51:54;;;;;;;3.67;1.35;;;;;;;16.05;88.20;101803.63;5159782;28;20034;-75
2022/08/10 01:54:26;;;;;;;3.63;1.50;;;;;;;15.99;88.40;101792.47;5159708;28;20034;-75
2022/08/10 01:56:58;;;;;;;3.08;1.40;;;;;;;15.84;88.69;101791.28;5159796;28;20109;-74
2022/08/10 01:59:35;;;;;;;3.50;1.55;;;;;;;15.89;88.79;101789.31;5160013;28;20075;-75
2022/08/10 02:02:09;;;;;;;4.30;1.40;;;;;;;16.07;88.12;101796.53;5160320;28;20034;-75
2022/08/10 02:04:44;;;;;;;4.13;1.52;;;;;;;15.96;89.24;101796.09;5159943;28;20030;-74
2022/08/10 02:07:18;;;;;;;3.30;1.50;;;;;;;16.26;86.81;101800.19;5158405;28;20049;-75
2022/08/10 02:09:52;;;;;;;2.42;1.38;;;;;;;16.27;86.50;101804.56;5159876;28;20043;-74
2022/08/10 02:12:27;;;;;;;4.10;1.60;;;;;;;16.00;87.66;101800.31;5159964;28;20022;-75
2022/08/10 02:14:59;;;;;;;4.90;1.60;;;;;;;15.96;87.94;101811.91;5158742;28;20038;-74
2022/08/10 02:17:34;;;;;;;2.75;1.50;;;;;;;15.86;88.82;101805.25;5158207;28;20046;-74
2022/08/10 02:20:10;;;;;;;3.13;1.70;;;;;;;15.95;87.75;101812.84;5159831;28;20030;-75
2022/08/10 02:22:43;;;;;;;5.38;1.83;;;;;;;15.76;87.97;101814.44;5158946;28;21001;-75
2022/08/10 02:25:15;;;;;;;2.95;1.58;;;;;;;15.70;88.45;101809.38;5157798;28;20066;-75
2022/08/10 02:27:48;;;;;;;5.00;1.75;;;;;;;15.35;89.99;101808.94;5154495;28;20038;-75
2022/08/10 02:30:20;;;;;;;3.20;1.60;;;;;;;15.17;92.85;101810.41;5159599;28;20027;-75
2022/08/10 02:32:52;;;;;;;3.53;1.80;;;;;;;15.33;91.57;101806.34;5160099;28;20043;-75
2022/08/10 02:35:23;;;;;;;4.10;2.00;;;;;;;15.12;92.93;101807.09;5159314;28;20507;-75
2022/08/10 02:37:58;;;;;;;7.03;1.50;;;;;;;14.94;93.86;101812.97;5201653;22;20064;-72
2022/08/10 02:40:31;;;;;;;2.55;1.40;;;;;;;14.99;94.08;101813.66;5198454;28;20493;-71
2022/08/10 02:43:16;;;;;;;2.88;1.70;;;;;;;15.21;91.40;101812.00;5199608;28;20395;-72
2022/08/10 02:46:00;;;;;;;4.28;1.50;;;;;;;15.21;91.64;101816.44;5196699;28;20458;-72
2022/08/10 02:48:33;;;;;;;3.88;1.58;;;;;;;14.91;94.28;101820.09;5199385;28;20025;-72
2022/08/10 02:51:07;;;;;;;4.88;1.80;;;;;;;15.25;91.86;101824.19;5199268;28;20570;-73
2022/08/10 02:53:46;;;;;;;3.33;1.50;;;;;;;15.13;93.38;101821.97;5199514;28;20449;-72
2022/08/10 02:56:39;;;;;;;4.82;1.65;;;;;;;15.20;91.45;101822.63;5195083;28;20030;-72
2022/08/10 02:59:13;;;;;;;2.40;1.40;;;;;;;15.02;93.80;101831.16;5200293;28;20037;-72
2022/08/10 03:01:48;;;;;;;6.22;1.90;;;;;;;14.95;90.87;101821.72;5199911;28;20030;-72
2022/08/10 03:04:28;;;;;;;6.40;1.80;;;;;;;14.91;91.34;101820.09;5200352;28;20108;-72
2022/08/10 03:07:02;;;;;;;3.50;1.90;;;;;;;14.55;93.67;101825.69;5199334;28;20029;-72
2022/08/10 03:09:37;;;;;;;3.38;1.80;;;;;;;14.55;94.07;101826.56;5199540;28;20522;-73
2022/08/10 03:12:11;;;;;;;2.92;1.40;;;;;;;14.24;97.52;101828.44;5200409;28;20052;-72
2022/08/10 03:14:43;;;;;;;3.67;1.80;;;;;;;14.44;95.65;101827.81;5198276;28;20083;-73
2022/08/10 03:17:15;;;;;;;2.97;1.70;;;;;;;14.57;94.51;101826.53;5199911;28;20178;-72
2022/08/10 03:19:47;;;;;;;3.05;1.33;;;;;;;14.74;93.48;101824.22;5198065;28;20052;-72
2022/08/10 03:22:18;;;;;;;4.65;1.67;;;;;;;14.80;92.98;101824.00;5203194;28;20033;-72
2022/08/10 03:24:51;;;;;;;4.63;1.60;;;;;;;14.53;93.68;101828.38;5203529;28;20033;-73
2022/08/10 03:27:22;;;;;;;3.42;1.48;;;;;;;14.28;96.26;101816.91;5201456;28;20486;-72
2022/08/10 03:29:54;;;;;;;6.03;1.67;;;;;;;14.55;95.27;101823.94;5203382;28;20172;-72
2022/08/10 03:32:25;;;;;;;2.83;1.65;;;;;;;14.41;95.86;101820.88;5203343;28;20017;-72
2022/08/10 03:34:57;;;;;;;3.88;1.50;;;;;;;14.63;93.51;101834.22;5201982;28;20053;-73
2022/08/10 03:37:28;;;;;;;3.88;1.70;;;;;;;14.60;93.36;101818.53;5202005;28;20034;-72
2022/08/10 03:39:58;;;;;;;4.90;1.50;;;;;;;14.42;94.64;101819.97;5203293;28;20032;-72
2022/08/10 03:42:31;;;;;;;3.38;1.65;;;;;;;14.43;94.58;101821.69;5203011;28;20041;-73
2022/08/10 03:45:04;;;;;;;2.55;1.80;;;;;;;14.38;97.00;101822.72;5203554;28;20030;-72
2022/08/10 03:47:41;;;;;;;3.67;1.60;;;;;;;14.52;93.87;101820.53;5202625;28;20030;-72
2022/08/10 03:50:12;;;;;;;7.03;2.15;;;;;;;14.39;94.14;101819.22;5200941;28;20025;-72
2022/08/10 03:52:43;;;;;;;2.65;1.50;;;;;;;14.46;92.98;101831.25;5201526;28;20106;-72
2022/08/10 03:55:14;;;;;;;3.67;1.60;;;;;;;14.15;94.14;101814.66;5201603;28;20036;-73
2022/08/10 03:57:45;;;;;;;4.55;1.60;;;;;;;14.39;94.09;101821.84;5198008;28;20098;-73
2022/08/10 04:00:17;;;;;;;2.80;1.83;;;;;;;14.34;93.30;101821.13;5202711;28;20021;-73
2022/08/10 04:02:49;;;;;;;3.25;1.50;;;;;;;13.93;95.97;101810.97;5203862;28;20041;-72
2022/08/10 04:05:20;;;;;;;4.45;2.08;;;;;;;14.12;96.31;101825.28;5201958;28;20040;-72
2022/08/10 04:07:50;;;;;;;4.95;2.10;;;;;;;14.10;97.12;101819.22;5202601;28;20034;-72
2022/08/10 04:10:21;;;;;;;2.85;1.80;;;;;;;14.02;96.81;101818.56;5201852;28;20071;-72
2022/08/10 04:12:51;;;;;;;7.00;1.90;;;;;;;14.06;96.96;101817.59;5202685;28;20514;-72
2022/08/10 04:15:23;;;;;;;4.03;2.00;;;;;;;13.84;99.05;101819.09;5202495;28;20495;-73
2022/08/10 04:17:53;;;;;;;3.70;1.80;;;;;;;13.97;99.15;101816.09;5202631;28;20037;-72
2022/08/10 04:20:30;;;;;;;3.72;1.80;;;;;;;13.93;99.25;101824.94;5201584;28;20017;-72
2022/08/10 04:23:06;;;;;;;5.03;1.80;;;;;;;14.05;99.15;101823.75;5202245;28;20052;-72
2022/08/10 04:25:38;;;;;;;4.15;1.70;;;;;;;14.15;98.83;101825.19;5202097;28;20444;-72
2022/08/10 04:28:10;;;;;;;6.07;1.80;;;;;;;14.34;97.83;101831.63;5199919;28;20250;-72
2022/08/10 04:30:41;;;;;;;3.92;1.60;;;;;;;14.34;97.32;101829.00;5199935;28;20521;-72
2022/08/10 04:33:14;;;;;;;6.72;1.85;;;;;;;14.23;99.05;101833.75;5203098;28;20033;-72
2022/08/10 04:35:46;;;;;;;3.30;1.70;;;;;;;14.28;98.71;101832.69;5199779;28;20495;-73
2022/08/10 04:38:17;;;;;;;3.83;1.90;;;;;;;14.42;98.38;101832.28;5201471;28;20112;-72
2022/08/10 04:40:48;;;;;;;5.07;2.00;;;;;;;14.51;96.22;101827.59;5201685;28;20036;-73
2022/08/10 04:43:19;;;;;;;2.45;1.55;;;;;;;14.66;96.93;101831.50;5201607;28;20092;-73
2022/08/10 04:45:49;;;;;;;3.75;1.90;;;;;;;14.46;99.58;101837.38;5201691;28;20524;-73
2022/08/10 04:48:22;;;;;;;5.65;2.00;;;;;;;14.59;99.89;101828.19;5201271;28;20414;-73
2022/08/10 04:50:52;;;;;;;4.50;1.77;;;;;;;14.87;96.80;101827.22;5201840;28;20041;-73
2022/08/10 04:53:22;;;;;;;4.97;2.10;;;;;;;14.87;96.62;101834.28;5202006;28;20021;-72
2022/08/10 04:55:53;;;;;;;3.45;1.80;;;;;;;15.56;92.12;101838.00;5201230;28;20033;-72
2022/08/10 04:58:23;;;;;;;2.42;1.58;;;;;;;16.35;89.92;101844.72;5199576;28;20017;-72
2022/08/10 05:00:53;;;;;;;2.40;1.45;;;;;;;17.97;84.05;101835.09;5201070;28;20079;-73
2022/08/10 05:03:23;;;;;;;4.53;1.85;;;;;;;19.72;72.17;101827.16;5201297;28;20079;-73
2022/08/10 05:05:54;;;;;;;4.47;1.70;;;;;;;21.48;67.45;101828.50;5201127;28;20276;-73
2022/08/10 05:08:25;;;;;;;3.17;1.77;;;;;;;20.89;68.42;101839.16;5200081;28;20056;-73
2022/08/10 05:10:55;;;;;;;5.80;1.83;;;;;;;21.95;64.91;101839.78;5201203;28;20037;-73
2022/08/10 05:13:26;;;;;;;4.07;1.60;;;;;;;23.24;62.63;101843.66;5200723;28;20078;-74
2022/08/10 05:15:56;;;;;;;4.68;1.52;;;;;;;24.56;59.93;101836.84;5200905;28;20456;-73
2022/08/10 05:18:26;;;;;;;3.35;1.70;;;;;;;24.48;60.17;101841.88;5196745;28;20530;-73
2022/08/10 05:20:57;;;;;;;5.50;1.92;;;;;;;25.24;57.62;101846.84;5201224;28;20068;-73
2022/08/10 05:23:27;;;;;;;2.92;1.52;;;;;;;25.41;58.37;101845.53;5199720;28;20048;-73
2022/08/10 05:25:58;;;;;;;2.97;1.48;;;;;;;26.45;56.25;101844.28;5201203;28;20037;-73
2022/08/10 05:28:28;;;;;;;5.65;1.75;;;;;;;26.59;55.74;101844.03;5200640;28;20100;-73
2022/08/10 05:30:58;;;;;;;5.90;1.58;;;;;;;25.94;56.37;101844.91;5199639;28;20034;-73
2022/08/10 05:33:29;;;;;;;5.40;1.50;;;;;;;26.79;55.48;101840.56;5200620;28;20026;-73
2022/08/10 05:36:00;;;;;;;9.70;2.78;;;;;;;26.83;54.58;101845.56;5200771;28;20398;-73
2022/08/10 05:38:31;;;;;;;5.80;1.50;;;;;;;25.70;57.77;101846.81;5200210;28;20125;-73
2022/08/10 05:41:02;;;;;;;4.10;1.40;;;;;;;26.06;57.00;101833.22;5200773;28;20033;-73
2022/08/10 05:43:32;;;;;;;7.03;1.70;;;;;;;26.07;55.58;101834.91;5200450;28;20394;-73
2022/08/10 05:46:03;;;;;;;14.93;1.90;;;;;;;27.16;55.56;101834.72;5199381;28;20486;-73
2022/08/10 05:48:35;;;;;;;5.05;1.40;;;;;;;27.72;53.56;101833.41;5200009;28;20549;-73
2022/08/10 05:51:05;;;;;;;6.22;1.60;;;;;;;26.36;56.78;101842.31;5200631;28;20025;-73
2022/08/10 05:53:37;;;;;;;6.50;1.92;;;;;;;27.58;54.68;101836.41;5200619;28;20091;-73
2022/08/10 05:56:08;;;;;;;9.65;1.60;;;;;;;28.11;54.04;101829.91;5200127;28;20033;-73
2022/08/10 05:58:39;;;;;;;5.88;1.33;;;;;;;29.01;52.08;101824.31;5199933;28;20025;-73
2022/08/10 06:01:13;;;;;;;5.55;1.60;;;;;;;28.63;52.46;101832.34;5200568;28;20571;-73
2022/08/10 06:03:52;;;;;;;7.30;1.33;;;;;;;28.93;52.94;101827.72;5195640;28;20557;-73
2022/08/10 06:06:26;;;;;;;4.47;1.60;;;;;;;29.30;52.48;101833.22;5196191;28;20322;-73
2022/08/10 06:08:59;;;;;;;6.63;1.45;;;;;;;28.30;52.34;101843.41;5197312;28;20110;-73
2022/08/10 06:11:30;;;;;;;5.97;1.60;;;;;;;24.91;59.69;101843.13;5200640;28;20025;-73
2022/08/10 06:16:53;;;;;;;5.07;1.60;;;;;;;23.29;65.43;101843.31;5199031;28;20040;-73
2022/08/10 06:19:25;;;;;;;4.85;1.58;;;;;;;22.61;68.18;101852.34;5200252;28;20543;-73
2022/08/10 06:22:00;;;;;;;9.45;1.77;;;;;;;23.97;63.73;101848.31;5199218;28;20059;-74
2022/08/10 06:24:36;;;;;;;8.65;1.55;;;;;;;24.88;62.57;101848.72;5199090;28;20502;-73
2022/08/10 06:27:07;;;;;;;3.95;1.60;;;;;;;25.60;59.29;101848.47;5200118;28;20486;-73
2022/08/10 06:29:40;;;;;;;5.18;1.52;;;;;;;25.33;61.28;101837.25;5199544;28;20028;-72
2022/08/10 06:32:12;;;;;;;4.53;1.60;;;;;;;25.41;60.95;101846.41;5197903;28;20029;-73
2022/08/10 06:34:48;;;;;;;5.20;1.40;;;;;;;26.24;59.40;101839.78;5195043;28;20564;-71
2022/08/10 06:37:22;;;;;;;5.53;1.63;;;;;;;27.07;58.23;101840.81;5194254;28;20029;-71
2022/08/10 06:39:52;;;;;;;6.35;1.40;;;;;;;26.90;58.16;101838.69;5196293;28;20026;-71
2022/08/10 06:42:31;;;;;;;3.25;1.48;;;;;;;27.52;57.32;101845.00;5198540;28;20033;-73
2022/08/10 06:45:09;;;;;;;9.00;1.50;;;;;;;28.00;55.84;101840.78;5198366;28;20478;-71
2022/08/10 06:47:47;;;;;;;8.90;1.65;;;;;;;27.84;55.85;101835.03;5195935;28;20124;-73
2022/08/10 06:50:38;;;;;;;7.38;1.40;;;;;;;28.32;55.13;101846.00;5194233;28;20037;-71
2022/08/10 06:53:20;;;;;;;4.78;1.17;;;;;;;28.47;54.76;101840.09;5198338;28;20031;-71
2022/08/10 06:56:19;;;;;;;5.70;1.75;;;;;;;28.99;53.72;101845.16;5200001;28;20061;-73
2022/08/10 06:59:02;;;;;;;6.25;1.27;;;;;;;29.59;52.89;101844.84;5205308;28;20040;-73
2022/08/10 07:01:35;;;;;;;4.05;1.63;;;;;;;28.76;55.06;101843.69;5203251;28;20497;-73
2022/08/10 07:04:24;;;;;;;4.32;1.13;;;;;;;29.49;53.14;101835.94;5203704;28;20605;-71
2022/08/10 07:06:57;;;;;;;3.40;1.10;;;;;;;28.42;54.91;101838.78;5203258;28;20304;-70
2022/08/10 07:09:29;;;;;;;2.47;1.20;;;;;;;29.10;54.33;101842.31;5203302;28;20529;-71
2022/08/10 07:12:00;;;;;;;13.02;1.70;;;;;;;30.30;53.07;101830.69;5203406;28;20033;-71
2022/08/10 07:14:33;;;;;;;4.93;1.42;;;;;;;30.80;50.64;101835.50;5203264;28;20037;-71
2022/08/10 07:17:06;;;;;;;9.98;1.50;;;;;;;32.33;49.42;101830.25;5202373;28;20026;-71
2022/08/10 07:19:40;;;;;;;5.90;1.40;;;;;;;32.49;49.75;101823.03;5201740;28;20028;-71
2022/08/10 07:22:13;;;;;;;4.40;1.50;;;;;;;31.70;49.60;101832.44;5203598;28;20025;-71
2022/08/10 07:24:45;;;;;;;5.65;1.23;;;;;;;32.83;47.51;101834.66;5203657;28;20279;-71
2022/08/10 07:27:17;;;;;;;3.10;1.17;;;;;;;33.09;47.84;101840.75;5197560;28;20028;-71
2022/08/10 07:29:50;;;;;;;5.10;1.50;;;;;;;33.80;46.57;101844.50;5202923;28;20034;-71
2022/08/10 07:32:22;;;;;;;6.35;1.40;;;;;;;33.82;46.42;101840.59;5203271;28;20099;-71
2022/08/10 07:34:54;;;;;;;3.70;1.40;;;;;;;34.41;45.55;101839.22;5201400;28;20116;-71
2022/08/10 07:37:28;;;;;;;5.20;1.55;;;;;;;33.77;46.59;101836.69;5201213;28;20570;-71
2022/08/10 07:40:01;;;;;;;2.15;1.08;;;;;;;34.13;46.06;101827.94;5202479;28;20280;-71
2022/08/10 07:42:32;;;;;;;4.47;1.20;;;;;;;34.24;46.27;101830.31;5202324;28;20025;-71
2022/08/10 07:45:04;;;;;;;5.32;1.35;;;;;;;33.62;46.87;101836.53;5203154;28;20037;-71
2022/08/10 07:47:50;;;;;;;5.93;1.20;;;;;;;34.24;46.28;101835.72;5202308;28;20033;-71
2022/08/10 07:50:24;;;;;;;4.45;1.20;;;;;;;33.78;47.27;101831.09;5200082;28;20025;-71
2022/08/10 07:52:59;;;;;;;5.57;1.10;;;;;;;34.74;46.12;101827.16;5203033;28;20563;-71
2022/08/10 07:55:31;;;;;;;4.05;1.40;;;;;;;34.30;45.75;101820.56;5199460;28;20479;-71
2022/08/10 07:58:03;;;;;;;5.22;1.38;;;;;;;36.05;45.47;101818.31;5197315;28;20526;-71
2022/08/10 08:00:34;;;;;;;4.95;1.38;;;;;;;34.12;45.44;101825.38;5201526;28;20044;-71
2022/08/10 08:03:06;;;;;;;2.35;1.10;;;;;;;35.13;45.26;101824.13;5202679;28;20503;-71
2022/08/10 08:05:36;;;;;;;5.10;1.25;;;;;;;32.95;47.93;101825.19;5201531;28;20025;-71
2022/08/10 08:08:08;;;;;;;5.47;1.20;;;;;;;33.72;46.36;101812.81;5201877;28;20025;-70
2022/08/10 08:10:39;;;;;;;3.22;1.30;;;;;;;34.21;46.18;101818.94;5199693;28;20033;-71
2022/08/10 08:13:12;;;;;;;4.72;1.35;;;;;;;33.53;47.16;101818.56;5198259;28;20037;-71
2022/08/10 08:15:43;;;;;;;8.07;1.20;;;;;;;36.02;44.36;101807.78;5199652;28;20276;-71
2022/08/10 08:18:16;;;;;;;4.07;1.45;;;;;;;34.44;44.23;101819.81;5201435;28;20292;-71
2022/08/10 08:20:47;;;;;;;4.03;1.30;;;;;;;34.39;46.09;101816.81;5200586;28;20398;-71
2022/08/10 08:23:18;;;;;;;4.65;1.38;;;;;;;35.42;43.52;101807.09;5201419;28;20036;-71
2022/08/10 08:25:49;;;;;;;7.82;1.33;;;;;;;34.42;43.74;101809.16;5193896;28;20036;-71
2022/08/10 08:28:21;;;;;;;2.28;1.10;;;;;;;34.01;45.33;101813.03;5196672;28;20033;-71
2022/08/10 08:30:52;;;;;;;2.20;1.00;;;;;;;34.49;46.04;101806.56;5198637;28;20529;-71
2022/08/10 08:33:24;;;;;;;4.93;1.13;;;;;;;34.96;44.73;101807.28;5198996;28;20044;-71
2022/08/10 08:35:56;;;;;;;4.60;1.40;;;;;;;36.62;42.66;101809.22;5198974;28;20103;-71
2022/08/10 08:38:27;;;;;;;4.22;1.10;;;;;;;35.73;43.85;101805.94;5200029;28;20385;-71
2022/08/10 08:41:23;;;;;;;3.47;1.33;;;;;;;36.16;42.90;101801.53;5199645;28;20080;-72
2022/08/10 08:44:20;;;;;;;3.22;1.10;;;;;;;36.27;41.62;101804.59;5192959;28;20284;-71
2022/08/10 08:47:01;;;;;;;4.82;1.20;;;;;;;36.11;42.26;101796.63;5196183;28;20603;-71
2022/08/10 08:49:50;;;;;;;3.13;1.00;;;;;;;36.47;41.51;101804.84;5198485;28;20136;-72
2022/08/10 08:52:27;;;;;;;2.08;0.90;;;;;;;35.72;43.22;101796.06;5195658;28;20025;-72
2022/08/10 08:55:35;;;;;;;4.90;1.20;;;;;;;33.48;44.57;101798.41;5198657;28;20045;-71
2022/08/10 08:58:25;;;;;;;3.58;1.10;;;;;;;34.47;44.13;101789.59;5198675;28;20538;-71
2022/08/10 09:01:02;;;;;;;5.32;1.02;;;;;;;36.69;40.48;101791.09;5197384;28;20045;-71
2022/08/10 09:03:52;;;;;;;5.63;1.05;;;;;;;33.59;44.24;101789.91;5200379;28;20037;-71
2022/08/10 09:06:31;;;;;;;3.92;0.90;;;;;;;29.54;48.47;101798.63;5192350;28;20529;-71
2022/08/10 09:09:09;;;;;;;4.55;1.10;;;;;;;28.22;50.10;101791.28;5199522;28;20539;-70
2022/08/10 09:12:10;;;;;;;3.33;0.93;;;;;;;30.24;48.30;101788.13;5199065;28;20533;-71
2022/08/10 09:14:54;;;;;;;4.10;1.10;;;;;;;30.82;47.78;101774.09;5199402;28;20094;-71
2022/08/10 09:17:41;;;;;;;2.17;1.02;;;;;;;29.62;47.49;101780.72;5194825;28;20030;-71
2022/08/10 09:20:45;;;;;;;1.95;0.90;;;;;;;28.97;48.54;101785.19;5197330;28;20030;-71
2022/08/10 09:23:40;;;;;;;2.58;0.95;;;;;;;28.95;49.14;101787.19;5194687;28;20039;-71
2022/08/10 09:26:19;;;;;;;3.17;0.95;;;;;;;29.46;48.64;101782.28;5195108;28;20033;-70
2022/08/10 09:28:55;;;;;;;5.22;1.27;;;;;;;28.35;48.97;101784.72;5196094;28;20029;-71
2022/08/10 09:31:28;;;;;;;3.40;1.10;;;;;;;28.88;48.30;101783.34;5199423;28;20121;-71
2022/08/10 09:34:09;;;;;;;2.38;1.00;;;;;;;29.70;48.29;101788.91;5200385;28;20048;-70
2022/08/10 09:36:51;;;;;;;3.10;1.00;;;;;;;29.19;47.86;101787.56;5199028;28;20042;-70
2022/08/10 09:39:36;;;;;;;4.97;1.48;;;;;;;30.09;47.87;101778.84;5196197;28;20033;-71
2022/08/10 09:42:23;;;;;;;2.58;0.98;;;;;;;29.68;47.73;101769.34;5198457;28;20402;-70
2022/08/10 09:45:12;;;;;;;3.83;1.00;;;;;;;29.21;49.47;101782.94;5196809;28;20043;-71
2022/08/10 09:47:55;;;;;;;4.53;1.30;;;;;;;28.76;50.10;101768.31;5198696;28;20121;-70
2022/08/10 09:50:47;;;;;;;3.60;1.17;;;;;;;29.04;48.90;101768.31;5197329;28;20037;-72
2022/08/10 09:53:36;;;;;;;4.55;1.13;;;;;;;29.18;48.53;101758.94;5195609;28;20526;-72
2022/08/10 09:56:28;;;;;;;2.38;1.10;;;;;;;29.27;49.39;101766.16;5199022;28;20037;-72
2022/08/10 09:59:39;;;;;;;2.10;0.90;;;;;;;28.52;49.36;101769.72;5196590;28;20041;-73
2022/08/10 10:02:42;;;;;;;3.45;0.85;;;;;;;28.81;47.82;101758.81;5196527;28;20075;-72
2022/08/10 10:05:57;;;;;;;3.17;1.23;;;;;;;29.26;49.62;101772.56;5198218;28;20391;-72
2022/08/10 10:08:37;;;;;;;1.98;0.80;;;;;;;28.37;49.30;101766.59;5194954;28;20041;-73
2022/08/10 10:11:12;;;;;;;3.53;0.80;;;;;;;28.88;48.41;101761.81;5197133;28;20021;-73
2022/08/10 10:14:04;;;;;;;1.63;0.70;;;;;;;29.06;48.63;101760.13;5195708;28;20038;-73
2022/08/10 10:16:55;;;;;;;3.40;0.93;;;;;;;28.84;47.46;101750.47;5197815;28;20033;-72
2022/08/10 10:19:29;;;;;;;3.97;1.15;;;;;;;28.38;49.27;101760.22;5196715;28;20120;-73
2022/08/10 10:22:03;;;;;;;5.03;1.00;;;;;;;28.64;49.33;101747.91;5196723;28;20057;-72
2022/08/10 10:24:46;;;;;;;5.82;1.15;;;;;;;28.66;49.17;101747.78;5196784;28;20041;-72
2022/08/10 10:27:32;;;;;;;3.40;0.93;;;;;;;28.97;48.33;101751.06;5193876;28;20021;-73
2022/08/10 10:30:09;;;;;;;1.60;0.75;;;;;;;29.15;48.65;101737.69;5201798;28;20057;-73
2022/08/10 10:33:01;;;;;;;5.43;0.95;;;;;;;28.87;47.50;101739.41;5202565;28;20111;-73
2022/08/10 10:35:46;;;;;;;4.40;1.15;;;;;;;28.47;49.69;101737.84;5201882;28;20029;-72
2022/08/10 10:38:18;;;;;;;3.38;0.90;;;;;;;28.34;49.87;101739.94;5197988;28;20118;-73
2022/08/10 10:41:00;;;;;;;3.63;1.00;;;;;;;28.41;49.49;101741.09;5202871;28;20029;-73
2022/08/10 10:43:57;;;;;;;5.43;1.30;;;;;;;27.91;50.63;101739.41;5201083;28;20049;-73
2022/08/10 10:46:46;;;;;;;7.13;1.38;;;;;;;27.00;51.81;101737.63;5197345;28;20056;-73
2022/08/10 10:49:27;;;;;;;4.38;1.00;;;;;;;27.54;52.21;101735.56;5199032;28;20539;-73
2022/08/10 10:52:16;;;;;;;6.00;1.00;;;;;;;27.72;51.63;101739.34;5201320;28;20025;-72
2022/08/10 10:55:02;;;;;;;4.72;0.80;;;;;;;27.68;50.38;101729.81;5198069;28;20041;-73
2022/08/10 10:57:38;;;;;;;;;;;;;;;27.74;51.42;101723.91;5202187;28;20025;-72
2022/08/10 11:00:10;;;;;;;4.47;1.20;;;;;;;27.75;52.23;101728.31;5202248;28;19924;-72
2022/08/10 11:02:50;;;;;;;5.22;1.30;;;;;;;27.10;52.71;101732.34;5202806;28;20021;-71
2022/08/10 11:05:39;;;;;;;4.80;1.40;;;;;;;26.91;52.46;101724.13;5199486;28;20083;-72
2022/08/10 11:08:21;;;;;;;2.78;1.17;;;;;;;27.27;51.36;101719.13;5201415;28;20068;-71
2022/08/10 11:11:01;;;;;;;2.58;1.00;;;;;;;27.13;51.79;101716.78;5199515;28;20106;-72
2022/08/10 11:13:59;;;;;;;2.97;1.13;;;;;;;27.36;52.98;101718.34;5202381;28;20636;-72
2022/08/10 11:16:29;;;;;;;6.63;1.52;;;;;;;26.96;51.95;101717.34;5200100;28;20148;-72
2022/08/10 11:19:21;;;;;;;2.63;0.90;;;;;;;27.48;52.59;101711.88;5199066;28;20085;-72
2022/08/10 11:22:21;;;;;;;5.65;1.17;;;;;;;27.74;51.57;101713.19;5191978;28;20274;-72
2022/08/10 11:25:14;;;;;;;3.13;1.15;;;;;;;28.09;51.53;101707.34;5205991;28;20041;-72
2022/08/10 11:28:16;;;;;;;4.22;1.20;;;;;;;27.11;51.08;101708.03;5192461;28;20049;-72
2022/08/10 11:30:50;;;;;;;2.33;1.05;;;;;;;27.32;50.51;101706.19;5200834;28;20511;-72
2022/08/10 11:33:26;;;;;;;5.68;1.08;;;;;;;27.69;51.94;101715.41;5200446;28;20025;-72
2022/08/10 11:36:02;;;;;;;3.05;1.10;;;;;;;27.48;51.32;101700.31;5200792;28;20085;-72
2022/08/10 11:38:42;;;;;;;3.13;1.02;;;;;;;27.65;51.40;101711.25;5200983;28;20033;-72
2022/08/10 11:41:40;;;;;;;4.07;1.00;;;;;;;27.62;51.12;101703.47;5200674;28;20045;-72
2022/08/10 11:44:24;;;;;;;1.88;0.95;;;;;;;27.79;50.49;101702.03;5200200;28;20029;-71
2022/08/10 11:47:03;;;;;;;2.72;0.98;;;;;;;27.37;51.06;101703.06;5198353;28;20289;-72
2022/08/10 11:49:43;;;;;;;5.35;1.10;;;;;;;27.17;51.96;101707.50;5200147;28;20049;-72
2022/08/10 11:52:35;;;;;;;4.47;1.10;;;;;;;27.30;51.90;101705.44;5196769;28;20651;-72
2022/08/10 11:55:19;;;;;;;8.13;1.50;;;;;;;27.26;52.82;101712.06;5201150;28;20048;-71
2022/08/10 11:57:54;;;;;;;5.18;1.00;;;;;;;26.94;51.45;101708.59;5197540;28;20044;-72
2022/08/10 12:00:28;;;;;;;3.17;1.10;;;;;;;27.34;52.69;101700.66;5199377;28;20026;-72
2022/08/10 12:03:02;;;;;;;3.28;0.90;;;;;;;26.94;52.41;101699.69;5201927;28;20036;-72
2022/08/10 12:05:38;;;;;;;3.63;1.00;;;;;;;26.91;51.42;101695.44;5200897;28;20032;-73
2022/08/10 12:08:09;;;;;;;5.05;0.95;;;;;;;26.91;52.68;101690.06;5200423;28;20510;-71
2022/08/10 12:10:40;;;;;;;5.28;0.85;;;;;;;26.92;50.39;101675.66;5200831;28;20889;-72
2022/08/10 12:13:15;;;;;;;1.92;0.93;;;;;;;27.24;50.77;101684.50;5196012;28;20036;-72